Archdale, North Carolina
Current Conditions -  °F | °C
As of 8:54 AM on Sunday 25 Jan 2015 (Local Time) from KGSO Reporting Station
Broken Clouds Broken Clouds  
Wind Chill: 29°   Ceiling: 22000
Heat Index: 35°   Visibility: 10mi
Dew Point: 28°   Wind: 7mph
Humidity: 76%   Direction: 210°SSW
Pressure: 29.9"   Gusts: NA
Location:  35.9136°N, 79.9465°W
Report Text: KGSO 251354Z 21006KT 10SM FEW160 BKN220 02/M02 A2990 RMK AO2 SLP130 T00171022
Loading
Personal Weather Stations






























Interactive Weather Map New forecast layout! Learn more

10-Day Weather Forecast

Advertisements
Track Severe Weather on mobile